Anchorville, MI

11:55 AM EST on January 27, 2015 (GMT -0500)
Swan Creek | Change Station
CLOSE
Current Station
Personal Weather Station
Location: Michigan, MI
Elevation: 584 ft
Nearby Weather Stations

Elev 584 ft 42.68 °N, 82.65 °W | Updated 14 minutes ago

Mostly Cloudy
Mostly Cloudy
21.2 °F
Feels Like 13 °F
N
6.0
Wind Variable Wind from NNE
Gusts 18.0 mph

Today
High -- | Low -- °F
--% Chance of Precip.
Yesterday
High -- | Low -- °F
Precip. -- in
7:50 AM 5:37 PM
First Quarter, 55% visible
Pressure 30.14 in
Visibility 12.0 miles
Clouds Few 2000 ft
Scattered Clouds 22000 ft
Windchill 13 °F
Dew Point 14 °F
Humidity 74%
Rainfall 0.00 in
Snow Depth Not available.
UV 2 out of 12
Pollen .10 out of 12
Air Quality Not available.
Flu Activity Not available.
METAR KMTC 271555Z 35012KT 12SM FEW020 SCT220 M07/M11 A3008 RMK SLP205 T10671109

More Conditions Fewer Conditions

Pressure 30.14 in
Visibility 12.0 miles
Clouds Few 2000 ft
Scattered Clouds 22000 ft
Windchill 13 °F
Dew Point 14 °F
Humidity 74%
Rainfall 0.00 in
Snow Depth Not available.
UV 2 out of 12
Pollen .10 out of 12
Air Quality Not available.
Flu Activity Not available.
METAR KMTC 271555Z 35012KT 12SM FEW020 SCT220 M07/M11 A3008 RMK SLP205 T10671109

More Conditions Fewer Conditions

10-Day Weather Forecast

Almanac

Astronomy

Jan. 27, 2015 Rise Set
Actual Time
Civil Twilight
Nautical Twilight
Astronomical Twilight
Moon
Length of Visible Light
Length of Day
Tomorrow will be .
, % of the Moon is Illuminated

Today's Extremes

State Highs State Lows

Community

WunderPhotos

Upload Photos

1,790,725 photos uploaded!

WunderBlogs® & News

Nearby

Air Quality

  Air Quality AQ Index Pollutant
Not available.

Snow Depth

Station Depth Elevation

Earthquake Activity

City Distance Mag. Time & Date
Minimum magnitude displayed is 2.5.

Coastal Water Temperatures

Place Temperature

Nearby Weather Stations